Mc Knightstown, Pennsylvania
Current Conditions -  °F | °C
As of 10:53 AM on Friday 21 Nov 2014 (Local Time) from KRYT Reporting Station
Clear Clear  
Wind Chill: 19°   Ceiling: Unl
Heat Index: 29°   Visibility: 10mi
Dew Point:   Wind: 12mph
Humidity: 36%   Direction: 340°NNW
Pressure: 30.37"   Gusts: 22mph
Location:  39.8752°N, 77.3219°W
Report Text: KRYT 211553Z AUTO 34010G19KT 310V010 10SM CLR M02/M15 A3037 RMK AO2 SLP304 T10171150 $
Loading
Personal Weather Stations






























Interactive Weather Map New forecast layout! Learn more

10-Day Weather Forecast

Advertisements
Track Severe Weather on mobile